createdAt,value
2023-02-14T00:02:22.224Z,5.28
2023-02-14T00:04:48.645Z,4.40
2023-02-14T00:07:15.343Z,4.85
2023-02-14T00:09:41.800Z,6.47
2023-02-14T00:12:08.455Z,4.05
2023-02-14T00:14:53.657Z,6.45
2023-02-14T00:17:20.056Z,4.85
2023-02-14T00:19:46.520Z,3.20
2023-02-14T00:22:12.977Z,4.22
2023-02-14T00:24:39.651Z,4.00
2023-02-14T00:27:06.107Z,4.72
2023-02-14T00:29:33.349Z,4.10
2023-02-14T00:32:00.856Z,6.35
2023-02-14T00:34:27.738Z,4.03
2023-02-14T00:36:54.134Z,5.07
2023-02-14T00:39:20.709Z,5.90
2023-02-14T00:41:47.165Z,5.90
2023-02-14T00:44:13.910Z,5.22
2023-02-14T00:46:41.554Z,5.85
2023-02-14T00:49:08.123Z,6.28
2023-02-14T00:51:34.547Z,5.80
2023-02-14T00:54:01.782Z,4.95
2023-02-14T00:58:54.843Z,4.75
2023-02-14T01:01:21.645Z,6.40
2023-02-14T01:03:48.479Z,5.97
2023-02-14T01:06:15.553Z,5.53
2023-02-14T01:08:41.946Z,5.88
2023-02-14T01:11:13.638Z,5.97
2023-02-14T01:13:40.527Z,6.30
2023-02-14T01:18:36.651Z,8.70
2023-02-14T01:21:20.492Z,7.70
2023-02-14T01:23:48.614Z,5.15
2023-02-14T01:26:15.797Z,6.35
2023-02-14T01:28:43.217Z,5.30
2023-02-14T01:31:19.775Z,5.90
2023-02-14T01:33:48.379Z,4.65
2023-02-14T01:36:17.889Z,5.18
2023-02-14T01:38:44.451Z,6.68
2023-02-14T01:41:11.227Z,5.20
2023-02-14T01:44:16.812Z,4.60
2023-02-14T01:46:45.422Z,5.18
2023-02-14T01:49:18.214Z,5.07
2023-02-14T01:51:53.678Z,5.93
2023-02-14T01:54:25.733Z,6.13
2023-02-14T01:56:58.551Z,5.88
2023-02-14T01:59:28.272Z,6.15
2023-02-14T02:01:55.647Z,6.55
2023-02-14T02:04:26.401Z,10.70
2023-02-14T02:06:59.614Z,7.00
2023-02-14T02:12:05.248Z,6.55
2023-02-14T02:14:32.537Z,5.97
2023-02-14T02:17:18.907Z,6.38
2023-02-14T02:19:54.792Z,8.32
2023-02-14T02:22:33.905Z,6.50
2023-02-14T02:25:06.326Z,6.75
2023-02-14T02:27:57.102Z,7.28
2023-02-14T02:30:45.394Z,6.57
2023-02-14T02:33:44.998Z,6.65
2023-02-14T02:36:37.584Z,6.18
2023-02-14T02:39:04.360Z,7.75
2023-02-14T02:41:41.622Z,6.82
2023-02-14T02:44:18.419Z,6.05
2023-02-14T02:47:15.936Z,7.38
2023-02-14T02:50:14.985Z,7.82
2023-02-14T02:53:03.208Z,8.00
2023-02-14T02:56:12.236Z,6.50
2023-02-14T02:58:57.101Z,6.70
2023-02-14T03:01:29.352Z,7.40
2023-02-14T03:04:19.239Z,8.38
2023-02-14T03:06:46.520Z,7.20
2023-02-14T03:09:18.994Z,7.03
2023-02-14T03:12:08.867Z,7.55
2023-02-14T03:14:50.768Z,9.48
2023-02-14T03:17:28.223Z,8.90
2023-02-14T03:20:17.573Z,9.80
2023-02-14T03:23:38.948Z,8.27
2023-02-14T03:26:42.705Z,7.93
2023-02-14T03:31:44.449Z,7.72
2023-02-14T03:34:17.169Z,8.05
2023-02-14T03:37:02.272Z,8.25
2023-02-14T03:39:52.443Z,9.15
2023-02-14T03:42:24.540Z,10.07
2023-02-14T03:44:53.333Z,9.50
2023-02-14T03:47:23.936Z,8.40
2023-02-14T03:49:55.280Z,9.45
2023-02-14T03:52:24.797Z,8.95
2023-02-14T03:54:54.296Z,8.60
2023-02-14T03:57:29.140Z,9.48
2023-02-14T03:59:56.399Z,10.50
2023-02-14T04:05:05.945Z,11.10
2023-02-14T04:07:53.506Z,10.15
2023-02-14T04:10:21.006Z,12.75
2023-02-14T04:12:47.907Z,9.93
2023-02-14T04:15:14.933Z,8.35
2023-02-14T04:18:00.026Z,11.50
2023-02-14T04:20:27.487Z,11.07
2023-02-14T04:22:54.463Z,10.93
2023-02-14T04:25:22.026Z,12.02
2023-02-14T04:27:48.763Z,11.90
2023-02-14T04:30:17.833Z,9.13
2023-02-14T04:32:44.804Z,10.25
2023-02-14T04:35:11.302Z,10.73
2023-02-14T04:37:37.839Z,8.35
2023-02-14T04:40:04.817Z,11.93
2023-02-14T04:42:31.240Z,9.55
2023-02-14T04:44:57.691Z,13.15
2023-02-14T04:47:24.102Z,13.02
2023-02-14T04:49:50.464Z,11.80
2023-02-14T04:52:17.265Z,12.32
2023-02-14T04:54:43.622Z,9.73
2023-02-14T04:57:10.180Z,12.77
2023-02-14T04:59:36.535Z,12.02
2023-02-14T05:02:03.032Z,15.07
2023-02-14T05:04:29.681Z,12.10
2023-02-14T05:06:56.087Z,12.68
2023-02-14T05:09:22.469Z,15.02
2023-02-14T05:11:48.835Z,12.82
2023-02-14T05:14:15.194Z,10.85
2023-02-14T05:16:41.660Z,15.13
2023-02-14T05:19:08.704Z,13.00
2023-02-14T05:21:35.134Z,12.10
2023-02-14T05:24:02.049Z,13.63
2023-02-14T05:26:28.479Z,13.60
2023-02-14T05:28:55.007Z,14.50
2023-02-14T05:31:21.411Z,12.52
2023-02-14T05:33:47.902Z,15.27
2023-02-14T05:36:14.702Z,16.75
2023-02-14T05:38:41.189Z,18.50
2023-02-14T05:41:07.632Z,14.90
2023-02-14T05:43:34.265Z,15.05
2023-02-14T05:46:00.769Z,13.23
2023-02-14T05:48:27.242Z,13.48
2023-02-14T05:50:53.630Z,17.67
2023-02-14T05:53:20.209Z,15.68
2023-02-14T05:55:47.461Z,13.50
2023-02-14T06:00:41.320Z,14.85
2023-02-14T06:03:10.881Z,15.52
2023-02-14T06:05:37.389Z,11.70
2023-02-14T06:08:04.118Z,18.08
2023-02-14T06:10:30.533Z,14.63
2023-02-14T06:12:57.097Z,13.95
2023-02-14T06:15:23.641Z,14.70
2023-02-14T06:17:55.072Z,13.73
2023-02-14T06:20:23.981Z,19.40
2023-02-14T06:22:52.077Z,17.92
2023-02-14T06:25:19.002Z,15.02
2023-02-14T06:27:46.728Z,16.50
2023-02-14T06:30:15.280Z,15.63
2023-02-14T06:32:41.686Z,21.40
2023-02-14T06:35:08.762Z,19.33
2023-02-14T06:37:35.903Z,19.73
2023-02-14T06:40:02.380Z,21.15
2023-02-14T06:42:28.934Z,20.58
2023-02-14T06:44:55.297Z,16.65
2023-02-14T06:47:21.680Z,19.25
2023-02-14T06:49:48.397Z,20.88
2023-02-14T06:52:14.761Z,25.38
2023-02-14T06:54:41.371Z,16.88
2023-02-14T06:57:07.851Z,23.92
2023-02-14T06:59:34.239Z,18.20
2023-02-14T07:02:00.632Z,26.95
2023-02-14T07:04:27.010Z,19.58
2023-02-14T07:06:53.380Z,19.20
2023-02-14T07:09:19.843Z,17.42
2023-02-14T07:11:47.437Z,19.33
2023-02-14T07:14:14.098Z,20.50
2023-02-14T07:16:40.481Z,21.50
2023-02-14T07:19:06.869Z,19.90
2023-02-14T07:21:33.392Z,19.88
2023-02-14T07:23:59.838Z,23.25
2023-02-14T07:26:26.186Z,18.83
2023-02-14T07:28:52.619Z,24.65
2023-02-14T07:31:23.559Z,22.45
2023-02-14T07:33:51.386Z,19.13
2023-02-14T07:36:18.367Z,17.85
2023-02-14T07:38:44.760Z,23.70
2023-02-14T07:41:11.194Z,18.38
2023-02-14T07:43:39.505Z,19.05
2023-02-14T07:46:06.601Z,19.77
2023-02-14T07:51:02.067Z,16.33
2023-02-14T07:53:29.140Z,16.95
2023-02-14T07:55:55.653Z,19.63
2023-02-14T07:58:22.298Z,21.27
2023-02-14T08:00:48.966Z,19.38
2023-02-14T08:03:15.677Z,19.00
2023-02-14T08:05:42.384Z,22.33
2023-02-14T08:08:09.131Z,23.27
2023-02-14T08:10:35.552Z,27.05
2023-02-14T08:13:03.365Z,22.27
2023-02-14T08:15:54.069Z,18.90
2023-02-14T08:18:23.087Z,23.60
2023-02-14T08:20:49.908Z,21.58
2023-02-14T08:23:18.482Z,27.67
2023-02-14T08:25:44.980Z,23.55
2023-02-14T08:28:13.634Z,24.00
2023-02-14T08:30:41.158Z,25.05
2023-02-14T08:33:07.798Z,29.33
2023-02-14T08:35:35.292Z,24.83
2023-02-14T08:38:01.910Z,21.40
2023-02-14T08:40:28.578Z,25.33
2023-02-14T08:42:54.936Z,21.52
2023-02-14T08:45:21.743Z,23.48
2023-02-14T08:47:48.597Z,25.35
2023-02-14T08:50:17.692Z,21.08
2023-02-14T08:52:44.830Z,23.90
2023-02-14T08:55:13.079Z,24.55
2023-02-14T08:57:39.969Z,22.55
2023-02-14T09:00:07.465Z,26.13
2023-02-14T09:02:34.355Z,23.20
2023-02-14T09:05:00.885Z,24.38
2023-02-14T09:07:27.412Z,23.55
2023-02-14T09:09:53.837Z,25.02
2023-02-14T09:12:20.302Z,28.60
2023-02-14T09:14:47.140Z,24.85
2023-02-14T09:17:14.969Z,23.85
2023-02-14T09:19:42.831Z,24.80
2023-02-14T09:22:11.241Z,28.60
2023-02-14T09:24:39.264Z,24.92
2023-02-14T09:27:06.061Z,22.70
2023-02-14T09:29:33.933Z,27.30
2023-02-14T09:32:01.698Z,25.45
2023-02-14T09:34:28.862Z,26.17
2023-02-14T09:37:14.022Z,24.85
2023-02-14T09:39:40.505Z,25.13
2023-02-14T09:42:22.622Z,25.70
2023-02-14T09:44:58.003Z,25.77
2023-02-14T09:47:36.696Z,24.55
2023-02-14T09:50:06.550Z,23.25
2023-02-14T09:52:33.443Z,24.10
2023-02-14T09:55:02.706Z,26.15
2023-02-14T09:57:47.557Z,23.95
2023-02-14T10:00:29.228Z,21.15
2023-02-14T10:03:04.714Z,22.67
2023-02-14T10:05:48.998Z,22.83
2023-02-14T10:08:40.861Z,21.30
2023-02-14T10:11:12.126Z,20.50
2023-02-14T10:13:44.955Z,19.80
2023-02-14T10:16:18.281Z,20.90
2023-02-14T10:18:54.062Z,21.63
2023-02-14T10:21:27.734Z,21.45
2023-02-14T10:24:01.704Z,18.98
2023-02-14T10:26:35.447Z,17.75
2023-02-14T10:29:03.929Z,21.88
2023-02-14T10:31:42.873Z,19.02
2023-02-14T10:36:55.282Z,17.85
2023-02-14T10:39:27.634Z,19.35
2023-02-14T10:42:13.173Z,18.50
2023-02-14T10:44:45.539Z,16.70
2023-02-14T10:47:15.333Z,18.85
2023-02-14T10:49:54.982Z,18.85
2023-02-14T10:52:36.453Z,16.70
2023-02-14T10:55:33.024Z,22.50
2023-02-14T10:58:02.956Z,18.75
2023-02-14T11:00:37.653Z,22.23
2023-02-14T11:03:08.251Z,21.55
2023-02-14T11:05:47.075Z,21.58
2023-02-14T11:08:24.124Z,17.50
2023-02-14T11:10:51.417Z,22.45
2023-02-14T11:13:47.345Z,18.15
2023-02-14T11:16:33.802Z,17.30
2023-02-14T11:19:15.603Z,16.77
2023-02-14T11:21:44.705Z,16.48
2023-02-14T11:24:35.910Z,18.02
2023-02-14T11:27:07.220Z,19.40
2023-02-14T11:29:45.170Z,16.77
2023-02-14T11:32:15.925Z,16.40
2023-02-14T11:34:52.521Z,15.93
2023-02-14T11:37:21.574Z,16.33
2023-02-14T11:39:48.979Z,17.52
2023-02-14T11:42:34.305Z,17.67
2023-02-14T11:45:00.734Z,16.23
2023-02-14T11:47:41.678Z,18.30
2023-02-14T11:50:25.870Z,17.75
2023-02-14T11:52:57.004Z,18.73
2023-02-14T11:55:29.016Z,17.02
2023-02-14T11:57:58.103Z,18.20
2023-02-14T12:00:31.300Z,15.13
2023-02-14T12:02:59.870Z,16.88
2023-02-14T12:05:28.807Z,14.13
2023-02-14T12:07:58.627Z,14.65
2023-02-14T12:10:35.703Z,16.38
2023-02-14T12:13:08.270Z,15.30
2023-02-14T12:15:43.656Z,16.60
2023-02-14T12:18:28.758Z,15.38
2023-02-14T12:21:03.241Z,14.55
2023-02-14T12:23:39.921Z,15.38
2023-02-14T12:26:17.827Z,15.80
2023-02-14T12:28:50.724Z,13.18
2023-02-14T12:31:18.158Z,13.95
2023-02-14T12:33:46.586Z,13.93
2023-02-14T12:36:38.846Z,14.05
2023-02-14T12:39:11.229Z,13.30
2023-02-14T12:42:11.421Z,15.88
2023-02-14T12:44:53.360Z,14.48
2023-02-14T12:47:29.154Z,15.50
2023-02-14T12:50:16.665Z,14.45
2023-02-14T12:53:03.841Z,14.77
2023-02-14T12:55:48.943Z,14.15
2023-02-14T12:58:26.585Z,14.77
2023-02-14T13:01:28.415Z,14.50
2023-02-14T13:04:21.540Z,13.52
2023-02-14T13:07:10.063Z,14.32
2023-02-14T13:09:56.574Z,15.63
2023-02-14T13:12:51.514Z,13.35
2023-02-14T13:15:27.405Z,16.38
2023-02-14T13:18:01.034Z,14.45
2023-02-14T13:20:41.153Z,14.82
2023-02-14T13:23:38.343Z,14.32
2023-02-14T13:26:33.019Z,14.43
2023-02-14T13:29:05.975Z,15.05
2023-02-14T13:31:33.717Z,15.35
2023-02-14T13:34:08.956Z,12.90
2023-02-14T13:36:36.948Z,13.82
2023-02-14T13:39:04.313Z,12.63
2023-02-14T13:41:31.383Z,14.85
2023-02-14T13:44:02.486Z,13.18
2023-02-14T13:46:31.851Z,12.23
2023-02-14T13:49:18.823Z,13.15
2023-02-14T13:51:53.490Z,15.00
2023-02-14T13:54:29.873Z,15.70
2023-02-14T13:56:57.969Z,15.60
2023-02-14T13:59:30.316Z,12.90
2023-02-14T14:02:31.039Z,16.00
2023-02-14T14:04:57.665Z,13.20
2023-02-14T14:07:30.732Z,14.35
2023-02-14T14:09:59.836Z,12.82
2023-02-14T14:12:26.185Z,13.63
2023-02-14T14:15:04.967Z,13.25
2023-02-14T14:17:35.740Z,13.77
2023-02-14T14:20:23.993Z,12.70
2023-02-14T14:23:01.290Z,13.40
2023-02-14T14:25:31.831Z,14.75
2023-02-14T14:27:59.296Z,13.95
2023-02-14T14:30:31.049Z,11.10
2023-02-14T14:33:13.700Z,13.20
2023-02-14T14:35:40.143Z,12.63
2023-02-14T14:38:13.206Z,11.63
2023-02-14T14:40:46.293Z,14.05
2023-02-14T14:43:18.581Z,13.10
2023-02-14T14:45:49.509Z,12.65
2023-02-14T14:48:43.215Z,14.20
2023-02-14T14:51:24.658Z,12.38
2023-02-14T14:53:58.571Z,15.30
2023-02-14T14:56:31.131Z,15.15
2023-02-14T14:58:58.259Z,14.38
2023-02-14T15:01:36.884Z,13.00
2023-02-14T15:04:24.908Z,11.75
2023-02-14T15:06:51.793Z,13.02
2023-02-14T15:09:24.090Z,12.52
2023-02-14T15:12:11.639Z,13.20
2023-02-14T15:14:42.924Z,15.88
2023-02-14T15:17:31.294Z,15.20
2023-02-14T15:20:01.724Z,13.35
2023-02-14T15:22:30.161Z,13.18
2023-02-14T15:24:57.811Z,13.27
2023-02-14T15:27:26.705Z,11.40
2023-02-14T15:30:01.962Z,12.98
2023-02-14T15:32:32.334Z,12.95
2023-02-14T15:35:03.024Z,14.95
2023-02-14T15:37:30.261Z,13.07
2023-02-14T15:39:57.838Z,13.80
2023-02-14T15:42:29.291Z,12.50
2023-02-14T15:45:22.281Z,13.93
2023-02-14T15:47:52.771Z,13.95
2023-02-14T15:50:27.725Z,13.07
2023-02-14T15:53:02.867Z,13.15
2023-02-14T15:55:30.681Z,12.63
2023-02-14T15:58:03.243Z,17.35
2023-02-14T16:00:31.568Z,14.32
2023-02-14T16:03:06.517Z,12.57
2023-02-14T16:05:33.340Z,13.90
2023-02-14T16:10:32.700Z,13.55
2023-02-14T16:13:17.513Z,14.73
2023-02-14T16:16:01.424Z,15.05
2023-02-14T16:18:40.115Z,17.65
2023-02-14T16:21:25.424Z,15.68
2023-02-14T16:24:18.290Z,13.60
2023-02-14T16:26:44.790Z,14.85
2023-02-14T16:29:14.804Z,15.95
2023-02-14T16:32:15.578Z,14.73
2023-02-14T16:34:43.304Z,15.73
2023-02-14T16:37:20.887Z,17.58
2023-02-14T16:39:47.921Z,14.05
2023-02-14T16:42:16.957Z,13.02
2023-02-14T16:44:44.380Z,13.05
2023-02-14T16:47:13.198Z,12.55
2023-02-14T16:49:40.398Z,11.80
2023-02-14T16:52:14.730Z,11.82
2023-02-14T16:54:41.251Z,15.15
2023-02-14T16:57:17.986Z,11.55
2023-02-14T16:59:44.551Z,14.90
2023-02-14T17:02:12.058Z,16.17
2023-02-14T17:04:38.582Z,13.60
2023-02-14T17:07:08.867Z,13.85
2023-02-14T17:09:40.285Z,12.95
2023-02-14T17:12:16.371Z,15.10
2023-02-14T17:14:47.179Z,13.50
2023-02-14T17:17:14.176Z,16.40
2023-02-14T17:22:07.628Z,14.98
2023-02-14T17:27:00.547Z,14.93
2023-02-14T17:29:27.083Z,14.45
2023-02-14T17:31:53.630Z,17.27
2023-02-14T17:34:20.075Z,14.32
2023-02-14T17:36:46.897Z,16.10
2023-02-14T17:39:14.651Z,16.77
2023-02-14T17:41:41.105Z,14.70
2023-02-14T17:44:07.817Z,14.55
2023-02-14T17:46:34.288Z,13.38
2023-02-14T17:49:02.611Z,13.85
2023-02-14T17:51:29.587Z,17.38
2023-02-14T17:53:58.793Z,16.25
2023-02-14T17:56:26.710Z,20.08
2023-02-14T17:58:54.927Z,16.40
2023-02-14T18:01:28.434Z,16.67
2023-02-14T18:03:55.013Z,18.48
2023-02-14T18:06:21.559Z,17.02
2023-02-14T18:08:49.792Z,19.70
2023-02-14T18:11:18.352Z,18.02
2023-02-14T18:13:45.526Z,16.30
2023-02-14T18:18:40.394Z,18.40
2023-02-14T18:21:09.390Z,19.33
2023-02-14T18:23:36.539Z,19.05
2023-02-14T18:26:06.849Z,19.50
2023-02-14T18:28:34.850Z,20.88
2023-02-14T18:31:05.489Z,20.63
2023-02-14T18:33:32.194Z,19.90
2023-02-14T18:36:02.675Z,20.85
2023-02-14T18:38:29.170Z,20.90
2023-02-14T18:40:55.790Z,18.95
2023-02-14T18:43:22.225Z,19.42
2023-02-14T18:45:48.652Z,19.27
2023-02-14T18:48:15.210Z,20.65
2023-02-14T18:50:41.622Z,18.80
2023-02-14T18:53:08.459Z,20.70
2023-02-14T18:55:37.110Z,17.23
2023-02-14T18:58:03.788Z,19.55
2023-02-14T19:00:33.194Z,20.77
2023-02-14T19:03:00.898Z,21.83
2023-02-14T19:05:27.996Z,21.40
2023-02-14T19:10:21.837Z,19.58
2023-02-14T19:12:48.570Z,19.35
2023-02-14T19:15:15.227Z,18.50
2023-02-14T19:17:41.630Z,16.55
2023-02-14T19:20:08.754Z,19.50
2023-02-14T19:22:39.466Z,21.15
2023-02-14T19:25:06.687Z,18.67
2023-02-14T19:30:01.547Z,18.65
2023-02-14T19:32:28.156Z,19.23
2023-02-14T19:34:54.709Z,20.13
2023-02-14T19:37:21.086Z,20.80
2023-02-14T19:39:47.860Z,18.58
2023-02-14T19:42:14.240Z,19.65
2023-02-14T19:44:40.720Z,20.77
2023-02-14T19:47:23.358Z,23.77
2023-02-14T19:49:51.923Z,21.15
2023-02-14T19:52:26.230Z,20.33
2023-02-14T19:54:55.301Z,19.67
2023-02-14T19:57:21.939Z,23.80
2023-02-14T19:59:48.533Z,20.35
2023-02-14T20:02:17.930Z,21.88
2023-02-14T20:04:44.566Z,21.92
2023-02-14T20:07:11.569Z,23.52
2023-02-14T20:09:38.033Z,27.38
2023-02-14T20:12:04.758Z,20.20
2023-02-14T20:14:47.149Z,20.15
2023-02-14T20:17:17.926Z,26.58
2023-02-14T20:19:44.389Z,26.42
2023-02-14T20:22:10.763Z,26.17
2023-02-14T20:24:37.653Z,19.38
2023-02-14T20:27:04.186Z,22.80
2023-02-14T20:29:30.636Z,23.73
2023-02-14T20:31:59.983Z,23.27
2023-02-14T20:34:27.089Z,24.48
2023-02-14T20:36:55.220Z,28.30
2023-02-14T20:39:27.106Z,24.80
2023-02-14T20:41:54.164Z,24.45
2023-02-14T20:44:21.549Z,26.13
2023-02-14T20:46:49.688Z,22.92
2023-02-14T20:49:16.418Z,26.33
2023-02-14T20:51:43.309Z,28.05
2023-02-14T20:54:09.800Z,21.63
2023-02-14T20:56:36.997Z,26.35
2023-02-14T21:01:30.288Z,24.63
2023-02-14T21:03:56.769Z,25.25
2023-02-14T21:06:25.434Z,23.60
2023-02-14T21:08:52.300Z,25.85
2023-02-14T21:11:22.407Z,23.38
2023-02-14T21:13:48.972Z,27.80
2023-02-14T21:16:19.429Z,26.63
2023-02-14T21:18:52.326Z,26.95
2023-02-14T21:21:24.497Z,24.65
2023-02-14T21:23:52.763Z,23.88
2023-02-14T21:26:21.260Z,24.60
2023-02-14T21:28:48.085Z,31.02
2023-02-14T21:31:20.654Z,27.85
2023-02-14T21:33:55.014Z,24.63
2023-02-14T21:36:23.849Z,23.50
2023-02-14T21:38:50.995Z,25.40
2023-02-14T21:43:47.516Z,24.98
2023-02-14T21:46:19.023Z,20.35
2023-02-14T21:49:04.762Z,21.58
2023-02-14T21:51:32.136Z,22.67
2023-02-14T21:54:01.939Z,22.45
2023-02-14T21:56:28.454Z,23.23
2023-02-14T21:58:55.724Z,27.90
2023-02-14T22:03:48.986Z,23.30
2023-02-14T22:06:15.513Z,24.48
2023-02-14T22:08:42.765Z,26.55
2023-02-14T22:13:37.024Z,25.92
2023-02-14T22:16:06.417Z,26.98
2023-02-14T22:18:33.358Z,28.10
2023-02-14T22:21:04.366Z,24.60
2023-02-14T22:23:32.164Z,24.08
2023-02-14T22:26:23.284Z,26.55
2023-02-14T22:28:52.191Z,22.25
2023-02-14T22:31:19.246Z,24.15
2023-02-14T22:33:47.173Z,26.20
2023-02-14T22:36:13.885Z,21.30
2023-02-14T22:38:40.875Z,25.60
2023-02-14T22:41:10.290Z,29.65
2023-02-14T22:43:37.721Z,26.13
2023-02-14T22:46:12.581Z,26.60
2023-02-14T22:48:40.178Z,28.40
2023-02-14T22:51:07.676Z,29.27
2023-02-14T22:53:34.466Z,29.90
2023-02-14T22:56:19.416Z,35.28
2023-02-14T22:58:46.308Z,28.23
2023-02-14T23:01:22.256Z,26.55
2023-02-14T23:03:52.237Z,28.83
2023-02-14T23:06:18.849Z,25.25
2023-02-14T23:08:47.168Z,26.33
2023-02-14T23:11:15.229Z,31.85
2023-02-14T23:14:01.123Z,27.20
2023-02-14T23:16:45.819Z,25.55
2023-02-14T23:19:36.492Z,23.73
2023-02-14T23:22:12.294Z,31.65
2023-02-14T23:24:38.827Z,24.40
2023-02-14T23:27:06.330Z,30.48
2023-02-14T23:29:33.338Z,29.42
2023-02-14T23:31:59.932Z,33.28
2023-02-14T23:34:28.956Z,35.28
2023-02-14T23:36:55.441Z,38.22
2023-02-14T23:39:22.870Z,39.65
2023-02-14T23:41:49.821Z,47.53
2023-02-14T23:44:22.073Z,38.95
2023-02-14T23:46:51.347Z,29.65
2023-02-14T23:49:18.465Z,35.35
2023-02-14T23:51:46.523Z,29.88
2023-02-14T23:54:13.511Z,35.00
2023-02-14T23:56:40.704Z,25.80
2023-02-14T23:59:08.522Z,27.85
